sensor_id;sensor_type;location;lat;lon;timestamp;noise_LAeq;noise_LA_min;noise_LA_max;noise_LA01;noise_LA95
72805;Laerm;60920;48.748;19.142;2023-05-07T00:00:54;46.53;42.59;50.51;;
72805;Laerm;60920;48.748;19.142;2023-05-07T00:03:20;47.67;43.77;51.25;;
72805;Laerm;60920;48.748;19.142;2023-05-07T00:05:46;47.67;44.25;51.99;;
72805;Laerm;60920;48.748;19.142;2023-05-07T00:08:11;47.49;44.04;51.16;;
72805;Laerm;60920;48.748;19.142;2023-05-07T00:10:37;48.04;43.41;51.73;;
72805;Laerm;60920;48.748;19.142;2023-05-07T00:13:02;48.04;43.18;51.85;;
72805;Laerm;60920;48.748;19.142;2023-05-07T00:15:27;48.33;44.09;51.86;;
72805;Laerm;60920;48.748;19.142;2023-05-07T00:17:53;46.78;41.72;51.90;;
72805;Laerm;60920;48.748;19.142;2023-05-07T00:20:18;45.30;41.09;49.36;;
72805;Laerm;60920;48.748;19.142;2023-05-07T00:22:44;44.47;39.30;48.57;;
72805;Laerm;60920;48.748;19.142;2023-05-07T00:25:09;42.01;38.58;47.28;;
72805;Laerm;60920;48.748;19.142;2023-05-07T00:27:35;43.25;39.73;47.67;;
72805;Laerm;60920;48.748;19.142;2023-05-07T00:30:00;43.88;39.06;50.54;;
72805;Laerm;60920;48.748;19.142;2023-05-07T00:32:26;44.45;40.04;51.92;;
72805;Laerm;60920;48.748;19.142;2023-05-07T00:34:51;44.91;40.39;53.10;;
72805;Laerm;60920;48.748;19.142;2023-05-07T00:37:16;45.30;40.02;50.96;;
72805;Laerm;60920;48.748;19.142;2023-05-07T00:39:41;46.48;41.88;56.50;;
72805;Laerm;60920;48.748;19.142;2023-05-07T00:42:07;47.44;43.77;51.65;;
72805;Laerm;60920;48.748;19.142;2023-05-07T00:44:33;49.11;43.91;56.29;;
72805;Laerm;60920;48.748;19.142;2023-05-07T00:46:58;47.22;41.65;52.62;;
72805;Laerm;60920;48.748;19.142;2023-05-07T00:49:28;46.76;42.41;54.64;;
72805;Laerm;60920;48.748;19.142;2023-05-07T00:51:57;45.67;42.46;49.32;;
72805;Laerm;60920;48.748;19.142;2023-05-07T00:54:22;46.81;42.38;56.03;;
72805;Laerm;60920;48.748;19.142;2023-05-07T00:56:48;46.14;41.92;51.78;;
72805;Laerm;60920;48.748;19.142;2023-05-07T00:59:13;46.92;42.24;53.20;;
72805;Laerm;60920;48.748;19.142;2023-05-07T01:01:38;46.04;42.23;49.85;;
72805;Laerm;60920;48.748;19.142;2023-05-07T01:04:04;47.02;43.50;51.22;;
72805;Laerm;60920;48.748;19.142;2023-05-07T01:06:29;47.43;42.51;52.33;;
72805;Laerm;60920;48.748;19.142;2023-05-07T01:08:55;48.31;43.47;54.38;;
72805;Laerm;60920;48.748;19.142;2023-05-07T01:11:22;49.09;43.42;57.38;;
72805;Laerm;60920;48.748;19.142;2023-05-07T01:13:48;44.85;40.51;51.54;;
72805;Laerm;60920;48.748;19.142;2023-05-07T01:16:14;45.09;40.53;51.63;;
72805;Laerm;60920;48.748;19.142;2023-05-07T01:18:39;45.46;40.71;51.36;;
72805;Laerm;60920;48.748;19.142;2023-05-07T01:21:05;46.17;39.84;51.99;;
72805;Laerm;60920;48.748;19.142;2023-05-07T01:23:30;43.93;39.24;50.07;;
72805;Laerm;60920;48.748;19.142;2023-05-07T01:25:55;43.59;39.33;52.64;;
72805;Laerm;60920;48.748;19.142;2023-05-07T01:28:21;44.03;39.63;51.09;;
72805;Laerm;60920;48.748;19.142;2023-05-07T01:31:01;46.57;39.72;55.89;;
72805;Laerm;60920;48.748;19.142;2023-05-07T01:33:27;44.50;39.39;52.81;;
72805;Laerm;60920;48.748;19.142;2023-05-07T01:35:56;45.19;39.54;51.67;;
72805;Laerm;60920;48.748;19.142;2023-05-07T01:38:23;44.19;39.70;50.25;;
72805;Laerm;60920;48.748;19.142;2023-05-07T01:40:48;44.41;39.15;50.89;;
72805;Laerm;60920;48.748;19.142;2023-05-07T01:43:14;43.00;39.01;49.30;;
72805;Laerm;60920;48.748;19.142;2023-05-07T01:45:40;42.68;39.17;47.97;;
72805;Laerm;60920;48.748;19.142;2023-05-07T01:48:06;43.28;38.29;49.75;;
72805;Laerm;60920;48.748;19.142;2023-05-07T01:50:32;44.46;39.60;50.37;;
72805;Laerm;60920;48.748;19.142;2023-05-07T01:52:57;44.77;39.61;49.93;;
72805;Laerm;60920;48.748;19.142;2023-05-07T01:55:23;44.46;39.43;49.63;;
72805;Laerm;60920;48.748;19.142;2023-05-07T01:57:48;43.06;39.15;47.94;;
72805;Laerm;60920;48.748;19.142;2023-05-07T02:00:14;42.00;38.04;48.20;;
72805;Laerm;60920;48.748;19.142;2023-05-07T02:02:39;41.25;38.73;44.30;;
72805;Laerm;60920;48.748;19.142;2023-05-07T02:05:05;41.64;38.45;46.30;;
72805;Laerm;60920;48.748;19.142;2023-05-07T02:07:30;41.50;38.62;46.43;;
72805;Laerm;60920;48.748;19.142;2023-05-07T02:09:56;41.28;38.34;47.34;;
72805;Laerm;60920;48.748;19.142;2023-05-07T02:12:21;41.12;38.18;45.27;;
72805;Laerm;60920;48.748;19.142;2023-05-07T02:14:47;40.79;37.20;45.30;;
72805;Laerm;60920;48.748;19.142;2023-05-07T02:17:13;41.61;38.37;46.21;;
72805;Laerm;60920;48.748;19.142;2023-05-07T02:19:38;43.51;38.87;47.17;;
72805;Laerm;60920;48.748;19.142;2023-05-07T02:22:03;43.02;39.19;49.10;;
72805;Laerm;60920;48.748;19.142;2023-05-07T02:24:29;43.92;40.02;49.70;;
72805;Laerm;60920;48.748;19.142;2023-05-07T02:26:55;44.12;39.66;48.63;;
72805;Laerm;60920;48.748;19.142;2023-05-07T02:29:20;42.80;38.59;47.29;;
72805;Laerm;60920;48.748;19.142;2023-05-07T02:31:45;42.46;39.09;46.15;;
72805;Laerm;60920;48.748;19.142;2023-05-07T02:34:10;43.41;39.67;48.31;;
72805;Laerm;60920;48.748;19.142;2023-05-07T02:36:36;44.75;41.36;50.69;;
72805;Laerm;60920;48.748;19.142;2023-05-07T02:39:01;44.86;41.13;51.21;;
72805;Laerm;60920;48.748;19.142;2023-05-07T02:41:27;44.54;38.58;51.58;;
72805;Laerm;60920;48.748;19.142;2023-05-07T02:43:53;42.94;39.92;50.05;;
72805;Laerm;60920;48.748;19.142;2023-05-07T02:46:18;42.58;39.46;46.06;;
72805;Laerm;60920;48.748;19.142;2023-05-07T02:48:44;43.20;39.95;46.92;;
72805;Laerm;60920;48.748;19.142;2023-05-07T02:51:09;43.27;39.58;49.75;;
72805;Laerm;60920;48.748;19.142;2023-05-07T02:53:34;42.96;40.02;47.56;;
72805;Laerm;60920;48.748;19.142;2023-05-07T02:56:00;43.22;39.32;48.38;;
72805;Laerm;60920;48.748;19.142;2023-05-07T02:58:25;42.84;39.56;46.84;;
72805;Laerm;60920;48.748;19.142;2023-05-07T03:00:51;42.66;39.42;47.20;;
72805;Laerm;60920;48.748;19.142;2023-05-07T03:03:16;43.28;40.16;49.38;;
72805;Laerm;60920;48.748;19.142;2023-05-07T03:05:42;43.09;39.38;48.18;;
72805;Laerm;60920;48.748;19.142;2023-05-07T03:08:07;44.87;41.76;49.44;;
72805;Laerm;60920;48.748;19.142;2023-05-07T03:10:33;45.42;41.92;50.64;;
72805;Laerm;60920;48.748;19.142;2023-05-07T03:12:58;45.95;42.61;51.76;;
72805;Laerm;60920;48.748;19.142;2023-05-07T03:15:24;46.14;42.32;50.95;;
72805;Laerm;60920;48.748;19.142;2023-05-07T03:17:49;45.01;41.73;51.40;;
72805;Laerm;60920;48.748;19.142;2023-05-07T03:20:15;46.27;42.28;49.95;;
72805;Laerm;60920;48.748;19.142;2023-05-07T03:22:40;45.95;42.66;50.46;;
72805;Laerm;60920;48.748;19.142;2023-05-07T03:25:06;46.54;43.00;51.59;;
72805;Laerm;60920;48.748;19.142;2023-05-07T03:27:32;47.29;43.22;54.26;;
72805;Laerm;60920;48.748;19.142;2023-05-07T03:29:57;45.76;41.76;53.21;;
72805;Laerm;60920;48.748;19.142;2023-05-07T03:32:22;45.32;40.99;51.36;;
72805;Laerm;60920;48.748;19.142;2023-05-07T03:34:48;43.46;39.97;46.70;;
72805;Laerm;60920;48.748;19.142;2023-05-07T03:37:13;45.61;41.36;52.16;;
72805;Laerm;60920;48.748;19.142;2023-05-07T03:39:38;45.08;41.46;51.33;;
72805;Laerm;60920;48.748;19.142;2023-05-07T03:42:04;43.73;40.35;48.06;;
72805;Laerm;60920;48.748;19.142;2023-05-07T03:44:29;43.27;40.22;47.35;;
72805;Laerm;60920;48.748;19.142;2023-05-07T03:46:54;43.69;40.32;48.68;;
72805;Laerm;60920;48.748;19.142;2023-05-07T03:49:20;43.76;40.61;52.90;;
72805;Laerm;60920;48.748;19.142;2023-05-07T03:51:45;45.09;41.45;49.44;;
72805;Laerm;60920;48.748;19.142;2023-05-07T03:54:11;42.96;39.38;47.64;;
72805;Laerm;60920;48.748;19.142;2023-05-07T03:56:36;41.96;39.15;46.43;;
72805;Laerm;60920;48.748;19.142;2023-05-07T03:59:01;41.87;39.30;44.93;;
72805;Laerm;60920;48.748;19.142;2023-05-07T04:01:27;42.67;39.64;46.35;;
72805;Laerm;60920;48.748;19.142;2023-05-07T04:03:52;42.94;39.33;46.71;;
72805;Laerm;60920;48.748;19.142;2023-05-07T04:06:17;41.78;38.89;45.44;;
72805;Laerm;60920;48.748;19.142;2023-05-07T04:08:43;42.65;39.32;47.67;;
72805;Laerm;60920;48.748;19.142;2023-05-07T04:11:08;43.61;39.41;48.49;;
72805;Laerm;60920;48.748;19.142;2023-05-07T04:13:34;43.79;40.15;48.37;;
72805;Laerm;60920;48.748;19.142;2023-05-07T04:16:00;42.70;39.81;46.90;;
72805;Laerm;60920;48.748;19.142;2023-05-07T04:18:26;41.86;38.83;46.51;;
72805;Laerm;60920;48.748;19.142;2023-05-07T04:20:51;40.84;37.49;44.77;;
72805;Laerm;60920;48.748;19.142;2023-05-07T04:23:17;40.65;38.15;44.43;;
72805;Laerm;60920;48.748;19.142;2023-05-07T04:25:42;40.97;37.80;45.01;;
72805;Laerm;60920;48.748;19.142;2023-05-07T04:28:07;41.57;37.58;46.30;;
72805;Laerm;60920;48.748;19.142;2023-05-07T04:30:33;38.81;36.02;43.28;;
72805;Laerm;60920;48.748;19.142;2023-05-07T04:32:58;38.41;35.01;43.54;;
72805;Laerm;60920;48.748;19.142;2023-05-07T04:35:23;37.16;34.77;43.82;;
72805;Laerm;60920;48.748;19.142;2023-05-07T04:37:48;37.20;34.21;45.46;;
72805;Laerm;60920;48.748;19.142;2023-05-07T04:40:14;36.33;33.57;46.16;;
72805;Laerm;60920;48.748;19.142;2023-05-07T04:42:39;36.17;33.81;44.65;;
72805;Laerm;60920;48.748;19.142;2023-05-07T04:45:05;35.99;33.42;45.29;;
72805;Laerm;60920;48.748;19.142;2023-05-07T04:47:30;35.80;33.26;44.46;;
72805;Laerm;60920;48.748;19.142;2023-05-07T04:49:57;36.32;33.07;48.06;;
72805;Laerm;60920;48.748;19.142;2023-05-07T04:52:22;35.68;33.33;43.48;;
72805;Laerm;60920;48.748;19.142;2023-05-07T04:54:47;35.01;32.66;41.96;;
72805;Laerm;60920;48.748;19.142;2023-05-07T04:57:13;35.76;32.92;45.00;;
72805;Laerm;60920;48.748;19.142;2023-05-07T04:59:38;35.02;32.65;39.05;;
72805;Laerm;60920;48.748;19.142;2023-05-07T05:02:03;34.94;32.69;40.84;;
72805;Laerm;60920;48.748;19.142;2023-05-07T05:04:29;34.41;32.14;39.65;;
72805;Laerm;60920;48.748;19.142;2023-05-07T05:06:54;34.41;32.02;43.06;;
72805;Laerm;60920;48.748;19.142;2023-05-07T05:09:20;34.33;32.00;38.08;;
72805;Laerm;60920;48.748;19.142;2023-05-07T05:11:45;34.94;32.55;43.51;;
72805;Laerm;60920;48.748;19.142;2023-05-07T05:14:10;34.50;32.31;40.48;;
72805;Laerm;60920;48.748;19.142;2023-05-07T05:16:36;35.37;32.87;44.46;;
72805;Laerm;60920;48.748;19.142;2023-05-07T05:19:01;35.68;32.44;49.14;;
72805;Laerm;60920;48.748;19.142;2023-05-07T05:21:27;34.24;32.09;42.17;;
72805;Laerm;60920;48.748;19.142;2023-05-07T05:23:52;34.58;31.89;42.02;;
72805;Laerm;60920;48.748;19.142;2023-05-07T05:26:17;34.47;32.31;41.62;;
72805;Laerm;60920;48.748;19.142;2023-05-07T05:28:43;34.90;32.47;39.88;;
72805;Laerm;60920;48.748;19.142;2023-05-07T05:31:08;34.54;32.32;41.37;;
72805;Laerm;60920;48.748;19.142;2023-05-07T05:33:34;34.06;31.67;39.59;;
72805;Laerm;60920;48.748;19.142;2023-05-07T05:35:59;34.67;31.79;42.94;;
72805;Laerm;60920;48.748;19.142;2023-05-07T05:38:24;34.11;31.81;37.75;;
72805;Laerm;60920;48.748;19.142;2023-05-07T05:40:50;34.24;31.47;43.32;;
72805;Laerm;60920;48.748;19.142;2023-05-07T05:43:16;34.96;31.77;42.47;;
72805;Laerm;60920;48.748;19.142;2023-05-07T05:45:41;34.62;32.12;40.60;;
72805;Laerm;60920;48.748;19.142;2023-05-07T05:48:06;34.11;31.63;40.57;;
72805;Laerm;60920;48.748;19.142;2023-05-07T05:50:33;34.99;32.00;41.75;;
72805;Laerm;60920;48.748;19.142;2023-05-07T05:53:00;34.08;31.78;40.99;;
72805;Laerm;60920;48.748;19.142;2023-05-07T05:55:26;35.08;31.90;46.96;;
72805;Laerm;60920;48.748;19.142;2023-05-07T05:57:51;34.91;31.60;45.14;;
72805;Laerm;60920;48.748;19.142;2023-05-07T06:00:16;34.51;31.43;41.54;;
72805;Laerm;60920;48.748;19.142;2023-05-07T06:02:42;34.13;31.90;37.06;;
72805;Laerm;60920;48.748;19.142;2023-05-07T06:05:10;34.36;32.29;37.38;;
72805;Laerm;60920;48.748;19.142;2023-05-07T06:07:36;34.35;31.91;37.35;;
72805;Laerm;60920;48.748;19.142;2023-05-07T06:10:01;34.04;31.43;40.95;;
72805;Laerm;60920;48.748;19.142;2023-05-07T06:12:26;34.34;31.43;39.94;;
72805;Laerm;60920;48.748;19.142;2023-05-07T06:14:52;33.33;30.56;38.35;;
72805;Laerm;60920;48.748;19.142;2023-05-07T06:17:17;33.29;30.83;40.37;;
72805;Laerm;60920;48.748;19.142;2023-05-07T06:19:43;34.17;31.10;48.47;;
72805;Laerm;60920;48.748;19.142;2023-05-07T06:22:08;35.33;30.91;47.85;;
72805;Laerm;60920;48.748;19.142;2023-05-07T06:24:33;35.84;31.04;49.45;;
72805;Laerm;60920;48.748;19.142;2023-05-07T06:26:59;34.18;31.27;47.26;;
72805;Laerm;60920;48.748;19.142;2023-05-07T06:29:24;33.46;30.84;40.42;;
72805;Laerm;60920;48.748;19.142;2023-05-07T06:31:51;32.51;29.65;36.58;;
72805;Laerm;60920;48.748;19.142;2023-05-07T06:34:17;34.85;30.96;44.18;;
72805;Laerm;60920;48.748;19.142;2023-05-07T06:36:42;35.43;31.11;44.43;;
72805;Laerm;60920;48.748;19.142;2023-05-07T06:39:07;36.61;30.78;51.98;;
72805;Laerm;60920;48.748;19.142;2023-05-07T06:41:33;33.63;30.84;37.91;;
72805;Laerm;60920;48.748;19.142;2023-05-07T06:43:59;33.87;29.59;42.21;;
72805;Laerm;60920;48.748;19.142;2023-05-07T06:46:24;40.40;30.47;60.83;;
72805;Laerm;60920;48.748;19.142;2023-05-07T06:48:50;36.43;29.70;56.43;;
72805;Laerm;60920;48.748;19.142;2023-05-07T06:51:15;37.59;30.13;57.85;;
72805;Laerm;60920;48.748;19.142;2023-05-07T06:53:41;33.79;30.10;42.88;;
72805;Laerm;60920;48.748;19.142;2023-05-07T06:56:06;34.08;30.86;42.29;;
72805;Laerm;60920;48.748;19.142;2023-05-07T06:58:32;34.87;31.06;46.26;;
72805;Laerm;60920;48.748;19.142;2023-05-07T07:00:57;34.76;30.79;44.15;;
72805;Laerm;60920;48.748;19.142;2023-05-07T07:03:22;34.62;30.90;39.82;;
72805;Laerm;60920;48.748;19.142;2023-05-07T07:05:51;34.47;31.16;40.55;;
72805;Laerm;60920;48.748;19.142;2023-05-07T07:08:16;34.29;30.98;39.17;;
72805;Laerm;60920;48.748;19.142;2023-05-07T07:10:43;34.12;30.47;41.60;;
72805;Laerm;60920;48.748;19.142;2023-05-07T07:13:08;34.77;31.27;40.90;;
72805;Laerm;60920;48.748;19.142;2023-05-07T07:15:33;34.82;32.02;42.59;;
72805;Laerm;60920;48.748;19.142;2023-05-07T07:17:58;34.70;31.45;40.04;;
72805;Laerm;60920;48.748;19.142;2023-05-07T07:20:24;36.48;32.22;50.32;;
72805;Laerm;60920;48.748;19.142;2023-05-07T07:22:49;35.31;32.09;45.30;;
72805;Laerm;60920;48.748;19.142;2023-05-07T07:25:15;35.73;31.89;50.45;;
72805;Laerm;60920;48.748;19.142;2023-05-07T07:27:40;37.00;31.37;49.57;;
72805;Laerm;60920;48.748;19.142;2023-05-07T07:30:05;36.02;32.61;47.52;;
72805;Laerm;60920;48.748;19.142;2023-05-07T07:32:31;35.09;31.78;43.35;;
72805;Laerm;60920;48.748;19.142;2023-05-07T07:34:58;36.58;32.34;50.90;;
72805;Laerm;60920;48.748;19.142;2023-05-07T07:37:23;37.12;32.29;48.44;;
72805;Laerm;60920;48.748;19.142;2023-05-07T07:39:50;35.28;31.72;45.46;;
72805;Laerm;60920;48.748;19.142;2023-05-07T07:42:15;35.64;32.39;48.15;;
72805;Laerm;60920;48.748;19.142;2023-05-07T07:44:41;35.40;32.41;49.83;;
72805;Laerm;60920;48.748;19.142;2023-05-07T07:47:06;35.39;32.02;50.70;;
72805;Laerm;60920;48.748;19.142;2023-05-07T07:49:31;35.59;31.71;45.66;;
72805;Laerm;60920;48.748;19.142;2023-05-07T07:51:57;35.96;32.58;51.42;;
72805;Laerm;60920;48.748;19.142;2023-05-07T07:54:24;35.47;32.64;41.45;;
72805;Laerm;60920;48.748;19.142;2023-05-07T07:56:50;36.13;32.30;46.12;;
72805;Laerm;60920;48.748;19.142;2023-05-07T07:59:15;35.97;32.04;44.32;;
72805;Laerm;60920;48.748;19.142;2023-05-07T08:01:43;36.05;32.43;44.05;;
72805;Laerm;60920;48.748;19.142;2023-05-07T08:04:09;35.85;31.58;45.20;;
72805;Laerm;60920;48.748;19.142;2023-05-07T08:06:34;36.02;32.17;51.03;;
72805;Laerm;60920;48.748;19.142;2023-05-07T08:09:00;35.85;32.63;44.86;;
72805;Laerm;60920;48.748;19.142;2023-05-07T08:11:25;35.22;32.02;44.92;;
72805;Laerm;60920;48.748;19.142;2023-05-07T08:13:51;35.77;31.76;46.78;;
72805;Laerm;60920;48.748;19.142;2023-05-07T08:16:16;35.58;32.06;40.74;;
72805;Laerm;60920;48.748;19.142;2023-05-07T08:18:41;36.89;31.35;51.37;;
72805;Laerm;60920;48.748;19.142;2023-05-07T08:21:07;38.12;32.63;53.66;;
72805;Laerm;60920;48.748;19.142;2023-05-07T08:23:32;36.96;31.99;51.13;;
72805;Laerm;60920;48.748;19.142;2023-05-07T08:25:59;36.62;31.77;49.22;;
72805;Laerm;60920;48.748;19.142;2023-05-07T08:28:24;35.69;32.05;41.17;;
72805;Laerm;60920;48.748;19.142;2023-05-07T08:30:50;38.28;31.65;59.89;;
72805;Laerm;60920;48.748;19.142;2023-05-07T08:33:15;38.72;34.42;48.06;;
72805;Laerm;60920;48.748;19.142;2023-05-07T08:35:41;36.79;32.85;42.39;;
72805;Laerm;60920;48.748;19.142;2023-05-07T08:38:06;36.34;32.75;43.33;;
72805;Laerm;60920;48.748;19.142;2023-05-07T08:40:33;36.59;33.36;46.52;;
72805;Laerm;60920;48.748;19.142;2023-05-07T08:43:00;35.80;31.68;42.85;;
72805;Laerm;60920;48.748;19.142;2023-05-07T08:45:27;35.27;31.33;47.80;;
72805;Laerm;60920;48.748;19.142;2023-05-07T08:47:55;36.41;32.07;47.28;;
72805;Laerm;60920;48.748;19.142;2023-05-07T08:50:22;37.25;30.16;47.95;;
72805;Laerm;60920;48.748;19.142;2023-05-07T08:52:47;37.04;32.34;47.70;;
72805;Laerm;60920;48.748;19.142;2023-05-07T08:55:12;35.83;33.01;47.15;;
72805;Laerm;60920;48.748;19.142;2023-05-07T08:57:38;35.91;32.71;46.44;;
72805;Laerm;60920;48.748;19.142;2023-05-07T09:00:04;36.57;32.60;50.02;;
72805;Laerm;60920;48.748;19.142;2023-05-07T09:02:29;36.01;32.55;49.98;;
72805;Laerm;60920;48.748;19.142;2023-05-07T09:04:54;36.74;31.89;48.11;;
72805;Laerm;60920;48.748;19.142;2023-05-07T09:07:20;35.96;30.44;50.25;;
72805;Laerm;60920;48.748;19.142;2023-05-07T09:09:46;35.74;30.92;49.17;;
72805;Laerm;60920;48.748;19.142;2023-05-07T09:12:11;33.82;30.34;45.81;;
72805;Laerm;60920;48.748;19.142;2023-05-07T09:14:37;34.12;30.73;45.61;;
72805;Laerm;60920;48.748;19.142;2023-05-07T09:17:03;36.54;30.59;55.41;;
72805;Laerm;60920;48.748;19.142;2023-05-07T09:19:29;34.15;29.81;40.38;;
72805;Laerm;60920;48.748;19.142;2023-05-07T09:22:02;33.86;29.40;42.00;;
72805;Laerm;60920;48.748;19.142;2023-05-07T09:24:27;35.75;30.04;44.80;;
72805;Laerm;60920;48.748;19.142;2023-05-07T09:26:57;35.90;30.37;55.55;;
72805;Laerm;60920;48.748;19.142;2023-05-07T09:29:23;34.22;30.29;45.08;;
72805;Laerm;60920;48.748;19.142;2023-05-07T09:31:48;34.78;29.19;51.69;;
72805;Laerm;60920;48.748;19.142;2023-05-07T09:34:13;35.75;29.86;51.67;;
72805;Laerm;60920;48.748;19.142;2023-05-07T09:36:38;32.80;28.71;43.47;;
72805;Laerm;60920;48.748;19.142;2023-05-07T09:39:04;33.63;29.60;44.23;;
72805;Laerm;60920;48.748;19.142;2023-05-07T09:41:32;35.09;30.39;46.49;;
72805;Laerm;60920;48.748;19.142;2023-05-07T09:43:58;33.31;29.69;44.98;;
72805;Laerm;60920;48.748;19.142;2023-05-07T09:46:30;33.55;30.14;41.47;;
72805;Laerm;60920;48.748;19.142;2023-05-07T09:48:59;34.86;30.69;44.69;;
72805;Laerm;60920;48.748;19.142;2023-05-07T09:51:30;36.08;31.49;49.91;;
72805;Laerm;60920;48.748;19.142;2023-05-07T09:53:58;36.44;31.47;53.13;;
72805;Laerm;60920;48.748;19.142;2023-05-07T09:56:26;37.67;32.03;53.38;;
72805;Laerm;60920;48.748;19.142;2023-05-07T09:58:52;36.74;32.09;48.08;;
72805;Laerm;60920;48.748;19.142;2023-05-07T10:01:18;36.18;32.35;55.16;;
72805;Laerm;60920;48.748;19.142;2023-05-07T10:03:47;35.66;29.64;49.48;;
72805;Laerm;60920;48.748;19.142;2023-05-07T10:06:13;36.99;28.94;46.62;;
72805;Laerm;60920;48.748;19.142;2023-05-07T10:08:39;36.93;31.68;42.46;;
72805;Laerm;60920;48.748;19.142;2023-05-07T10:11:05;35.81;30.06;45.84;;
72805;Laerm;60920;48.748;19.142;2023-05-07T10:13:31;36.47;30.29;53.09;;
72805;Laerm;60920;48.748;19.142;2023-05-07T10:15:57;36.81;31.72;56.65;;
72805;Laerm;60920;48.748;19.142;2023-05-07T10:18:23;37.70;30.96;47.99;;
72805;Laerm;60920;48.748;19.142;2023-05-07T10:20:48;37.04;32.93;43.95;;
72805;Laerm;60920;48.748;19.142;2023-05-07T10:23:17;37.16;32.34;47.61;;
72805;Laerm;60920;48.748;19.142;2023-05-07T10:25:44;38.86;31.99;59.57;;
72805;Laerm;60920;48.748;19.142;2023-05-07T10:28:09;36.34;31.14;42.47;;
72805;Laerm;60920;48.748;19.142;2023-05-07T10:30:48;36.82;31.45;47.30;;
72805;Laerm;60920;48.748;19.142;2023-05-07T10:33:19;36.15;30.09;42.58;;
72805;Laerm;60920;48.748;19.142;2023-05-07T10:35:47;35.34;29.29;42.82;;
72805;Laerm;60920;48.748;19.142;2023-05-07T10:38:13;36.64;31.53;44.22;;
72805;Laerm;60920;48.748;19.142;2023-05-07T10:40:39;36.89;31.07;45.21;;
72805;Laerm;60920;48.748;19.142;2023-05-07T10:43:05;44.20;31.48;64.87;;
72805;Laerm;60920;48.748;19.142;2023-05-07T10:45:31;37.31;31.68;49.57;;
72805;Laerm;60920;48.748;19.142;2023-05-07T10:48:12;37.40;31.80;44.20;;
72805;Laerm;60920;48.748;19.142;2023-05-07T10:50:42;35.57;30.65;45.92;;
72805;Laerm;60920;48.748;19.142;2023-05-07T10:55:42;36.30;31.75;46.68;;
72805;Laerm;60920;48.748;19.142;2023-05-07T10:58:23;37.36;32.89;60.58;;
72805;Laerm;60920;48.748;19.142;2023-05-07T11:00:50;37.53;30.76;45.55;;
72805;Laerm;60920;48.748;19.142;2023-05-07T11:03:16;36.07;30.39;45.11;;
72805;Laerm;60920;48.748;19.142;2023-05-07T11:05:42;36.58;32.52;46.50;;
72805;Laerm;60920;48.748;19.142;2023-05-07T11:08:08;38.84;31.67;55.21;;
72805;Laerm;60920;48.748;19.142;2023-05-07T11:10:52;35.93;31.06;42.13;;
72805;Laerm;60920;48.748;19.142;2023-05-07T11:13:18;37.12;31.94;49.57;;
72805;Laerm;60920;48.748;19.142;2023-05-07T11:15:45;37.14;31.05;46.83;;
72805;Laerm;60920;48.748;19.142;2023-05-07T11:18:12;37.10;32.03;45.63;;
72805;Laerm;60920;48.748;19.142;2023-05-07T11:20:44;36.52;32.01;44.45;;
72805;Laerm;60920;48.748;19.142;2023-05-07T11:25:58;35.47;30.32;53.22;;
72805;Laerm;60920;48.748;19.142;2023-05-07T11:28:23;36.18;31.36;50.74;;
72805;Laerm;60920;48.748;19.142;2023-05-07T11:30:49;36.75;32.38;46.90;;
72805;Laerm;60920;48.748;19.142;2023-05-07T11:33:16;38.05;32.95;48.76;;
72805;Laerm;60920;48.748;19.142;2023-05-07T11:35:42;36.88;32.29;44.73;;
72805;Laerm;60920;48.748;19.142;2023-05-07T11:38:07;37.96;32.47;51.40;;
72805;Laerm;60920;48.748;19.142;2023-05-07T11:40:33;36.70;32.42;43.09;;
72805;Laerm;60920;48.748;19.142;2023-05-07T11:42:58;35.60;31.22;40.12;;
72805;Laerm;60920;48.748;19.142;2023-05-07T11:45:23;36.19;30.42;51.05;;
72805;Laerm;60920;48.748;19.142;2023-05-07T11:47:50;36.05;31.82;43.36;;
72805;Laerm;60920;48.748;19.142;2023-05-07T11:50:15;37.36;32.25;43.37;;
72805;Laerm;60920;48.748;19.142;2023-05-07T11:52:49;36.97;32.16;44.26;;
72805;Laerm;60920;48.748;19.142;2023-05-07T11:55:15;36.48;29.88;43.29;;
72805;Laerm;60920;48.748;19.142;2023-05-07T11:57:43;36.97;31.46;46.96;;
72805;Laerm;60920;48.748;19.142;2023-05-07T12:00:08;36.57;30.94;51.53;;
72805;Laerm;60920;48.748;19.142;2023-05-07T12:02:34;44.60;31.65;58.94;;
72805;Laerm;60920;48.748;19.142;2023-05-07T12:05:00;37.57;32.92;45.34;;
72805;Laerm;60920;48.748;19.142;2023-05-07T12:07:25;36.28;31.70;43.84;;
72805;Laerm;60920;48.748;19.142;2023-05-07T12:09:51;36.08;30.07;46.59;;
72805;Laerm;60920;48.748;19.142;2023-05-07T12:12:17;40.98;33.36;58.96;;
72805;Laerm;60920;48.748;19.142;2023-05-07T12:14:43;37.94;31.85;51.85;;
72805;Laerm;60920;48.748;19.142;2023-05-07T12:17:09;36.38;31.49;49.07;;
72805;Laerm;60920;48.748;19.142;2023-05-07T12:19:35;37.51;32.08;50.96;;
72805;Laerm;60920;48.748;19.142;2023-05-07T12:22:01;36.70;32.64;51.52;;
72805;Laerm;60920;48.748;19.142;2023-05-07T12:24:27;36.46;30.83;43.79;;
72805;Laerm;60920;48.748;19.142;2023-05-07T12:26:52;37.87;33.58;46.80;;
72805;Laerm;60920;48.748;19.142;2023-05-07T12:29:21;36.11;29.46;47.74;;
72805;Laerm;60920;48.748;19.142;2023-05-07T12:31:46;36.80;31.54;48.44;;
72805;Laerm;60920;48.748;19.142;2023-05-07T12:34:11;36.84;32.63;42.15;;
72805;Laerm;60920;48.748;19.142;2023-05-07T12:36:40;36.07;30.49;42.00;;
72805;Laerm;60920;48.748;19.142;2023-05-07T12:39:09;37.64;31.21;50.27;;
72805;Laerm;60920;48.748;19.142;2023-05-07T12:44:30;39.17;31.28;53.11;;
72805;Laerm;60920;48.748;19.142;2023-05-07T12:46:56;37.10;31.16;61.18;;
72805;Laerm;60920;48.748;19.142;2023-05-07T12:49:22;37.46;32.11;49.97;;
72805;Laerm;60920;48.748;19.142;2023-05-07T12:51:48;37.41;31.31;54.32;;
72805;Laerm;60920;48.748;19.142;2023-05-07T12:54:14;36.13;30.95;53.57;;
72805;Laerm;60920;48.748;19.142;2023-05-07T12:56:39;40.14;31.59;67.84;;
72805;Laerm;60920;48.748;19.142;2023-05-07T12:59:05;37.88;31.69;49.20;;
72805;Laerm;60920;48.748;19.142;2023-05-07T13:01:30;36.64;31.46;47.72;;
72805;Laerm;60920;48.748;19.142;2023-05-07T13:03:58;34.29;29.66;42.87;;
72805;Laerm;60920;48.748;19.142;2023-05-07T13:06:25;34.40;29.47;44.26;;
72805;Laerm;60920;48.748;19.142;2023-05-07T13:08:51;35.11;30.04;46.90;;
72805;Laerm;60920;48.748;19.142;2023-05-07T13:11:16;34.34;29.38;43.51;;
72805;Laerm;60920;48.748;19.142;2023-05-07T13:13:42;34.95;31.03;39.89;;
72805;Laerm;60920;48.748;19.142;2023-05-07T13:16:08;35.78;30.77;55.81;;
72805;Laerm;60920;48.748;19.142;2023-05-07T13:18:34;34.19;29.83;41.65;;
72805;Laerm;60920;48.748;19.142;2023-05-07T13:21:00;34.78;29.54;44.07;;
72805;Laerm;60920;48.748;19.142;2023-05-07T13:23:25;35.90;29.48;48.36;;
72805;Laerm;60920;48.748;19.142;2023-05-07T13:25:51;35.89;31.25;46.38;;
72805;Laerm;60920;48.748;19.142;2023-05-07T13:28:19;35.36;29.66;41.81;;
72805;Laerm;60920;48.748;19.142;2023-05-07T13:30:45;35.94;30.64;48.19;;
72805;Laerm;60920;48.748;19.142;2023-05-07T13:33:10;34.28;29.49;40.05;;